createdAt,value
2023-02-08T00:00:29.451Z,0.00
2023-02-08T00:01:29.416Z,0.00
2023-02-08T00:02:29.476Z,0.00
2023-02-08T00:03:29.465Z,0.00
2023-02-08T00:04:29.393Z,0.00
2023-02-08T00:05:29.394Z,0.00
2023-02-08T00:06:29.376Z,0.00
2023-02-08T00:07:29.382Z,0.00
2023-02-08T00:08:29.361Z,0.00
2023-02-08T00:09:29.365Z,0.00
2023-02-08T00:10:29.355Z,0.00
2023-02-08T00:11:29.342Z,0.00
2023-02-08T00:12:29.341Z,0.00
2023-02-08T00:13:29.328Z,0.00
2023-02-08T00:14:29.322Z,0.00
2023-02-08T00:15:29.314Z,0.00
2023-02-08T00:16:29.325Z,0.00
2023-02-08T00:17:29.298Z,0.00
2023-02-08T00:18:29.294Z,0.00
2023-02-08T00:19:29.285Z,0.00
2023-02-08T00:20:29.271Z,0.00
2023-02-08T00:21:29.284Z,0.00
2023-02-08T00:22:29.258Z,0.00
2023-02-08T00:23:29.272Z,0.00
2023-02-08T00:24:29.250Z,0.00
2023-02-08T00:25:29.244Z,0.00
2023-02-08T00:26:29.231Z,0.00
2023-02-08T00:27:29.220Z,0.00
2023-02-08T00:28:29.299Z,0.00
2023-02-08T00:29:29.200Z,0.00
2023-02-08T00:30:29.195Z,0.00
2023-02-08T00:31:29.345Z,0.00
2023-02-08T00:32:29.194Z,0.00
2023-02-08T00:33:29.170Z,0.00
2023-02-08T00:34:29.157Z,0.00
2023-02-08T00:35:29.173Z,0.00
2023-02-08T00:36:29.150Z,0.00
2023-02-08T00:37:29.134Z,0.00
2023-02-08T00:38:29.136Z,0.00
2023-02-08T00:39:29.125Z,0.00
2023-02-08T00:40:29.113Z,0.00
2023-02-08T00:41:29.110Z,0.00
2023-02-08T00:42:29.092Z,0.00
2023-02-08T00:43:29.112Z,0.00
2023-02-08T00:44:29.082Z,0.00
2023-02-08T00:45:29.076Z,0.00
2023-02-08T00:46:29.118Z,0.00
2023-02-08T00:47:29.059Z,0.00
2023-02-08T00:48:29.074Z,0.00
2023-02-08T00:49:29.045Z,0.00
2023-02-08T00:50:29.036Z,0.00
2023-02-08T00:51:29.029Z,0.00
2023-02-08T00:52:29.017Z,0.00
2023-02-08T00:53:29.033Z,0.00
2023-02-08T00:54:29.005Z,0.00
2023-02-08T00:55:28.993Z,0.00
2023-02-08T00:56:28.988Z,0.00
2023-02-08T00:57:28.977Z,0.00
2023-02-08T00:58:28.968Z,0.00
2023-02-08T00:59:28.962Z,0.00
2023-02-08T01:00:29.039Z,0.00
2023-02-08T01:01:28.943Z,0.00
2023-02-08T01:02:28.942Z,0.00
2023-02-08T01:03:28.942Z,0.00
2023-02-08T01:04:28.950Z,0.00
2023-02-08T01:05:28.917Z,0.00
2023-02-08T01:06:28.918Z,0.00
2023-02-08T01:07:28.895Z,0.00
2023-02-08T01:08:28.886Z,0.00
2023-02-08T01:09:28.884Z,0.00
2023-02-08T01:10:28.869Z,0.00
2023-02-08T01:11:28.876Z,0.00
2023-02-08T01:12:28.854Z,0.00
2023-02-08T01:13:28.852Z,0.00
2023-02-08T01:14:28.850Z,0.00
2023-02-08T01:15:28.838Z,0.00
2023-02-08T01:16:28.885Z,0.00
2023-02-08T01:17:28.823Z,0.00
2023-02-08T01:18:28.815Z,0.00
2023-02-08T01:19:28.807Z,0.00
2023-02-08T01:20:28.809Z,0.00
2023-02-08T01:21:28.806Z,0.00
2023-02-08T01:22:28.785Z,0.00
2023-02-08T01:23:28.766Z,0.00
2023-02-08T01:24:28.760Z,0.00
2023-02-08T01:25:28.766Z,0.00
2023-02-08T01:26:28.741Z,0.00
2023-02-08T01:27:28.763Z,0.00
2023-02-08T01:28:28.726Z,0.00
2023-02-08T01:29:28.731Z,0.00
2023-02-08T01:30:28.720Z,0.00
2023-02-08T01:31:28.765Z,0.00
2023-02-08T01:32:28.698Z,0.00
2023-02-08T01:33:28.688Z,0.00
2023-02-08T01:34:28.678Z,0.00
2023-02-08T01:35:28.671Z,0.00
2023-02-08T01:36:28.683Z,0.00
2023-02-08T01:37:28.653Z,0.00
2023-02-08T01:38:28.646Z,0.00
2023-02-08T01:39:28.647Z,0.00
2023-02-08T01:40:28.634Z,0.00
2023-02-08T01:41:28.629Z,0.00
2023-02-08T01:42:28.616Z,0.00
2023-02-08T01:43:28.608Z,0.00
2023-02-08T01:44:28.600Z,0.00
2023-02-08T01:45:28.620Z,0.00
2023-02-08T01:46:28.580Z,0.00
2023-02-08T01:47:28.571Z,0.00
2023-02-08T01:48:28.562Z,0.00
2023-02-08T01:49:28.562Z,0.00
2023-02-08T01:50:28.543Z,0.00
2023-02-08T01:51:28.540Z,0.00
2023-02-08T01:52:28.564Z,0.00
2023-02-08T01:53:28.523Z,0.00
2023-02-08T01:54:28.519Z,0.00
2023-02-08T01:55:28.512Z,0.00
2023-02-08T01:56:28.495Z,0.00
2023-02-08T01:57:28.494Z,0.00
2023-02-08T01:58:28.484Z,0.00
2023-02-08T01:59:28.474Z,0.00
2023-02-08T02:00:28.470Z,0.00
2023-02-08T02:01:28.507Z,0.00
2023-02-08T02:02:28.454Z,0.00
2023-02-08T02:03:28.444Z,0.00
2023-02-08T02:04:28.500Z,0.00
2023-02-08T02:05:28.423Z,0.00
2023-02-08T02:06:28.417Z,0.00
2023-02-08T02:07:28.402Z,0.00
2023-02-08T02:08:28.416Z,0.00
2023-02-08T02:09:28.389Z,0.00
2023-02-08T02:10:28.385Z,0.00
2023-02-08T02:11:28.371Z,0.00
2023-02-08T02:12:28.375Z,0.00
2023-02-08T02:13:28.354Z,0.00
2023-02-08T02:14:28.358Z,0.00
2023-02-08T02:15:28.341Z,0.00
2023-02-08T02:16:28.408Z,0.00
2023-02-08T02:17:28.336Z,0.00
2023-02-08T02:18:28.347Z,0.00
2023-02-08T02:19:28.304Z,0.00
2023-02-08T02:20:28.338Z,0.00
2023-02-08T02:21:28.286Z,0.00
2023-02-08T02:22:28.332Z,0.00
2023-02-08T02:23:28.301Z,0.00
2023-02-08T02:24:28.305Z,0.00
2023-02-08T02:25:28.292Z,0.00
2023-02-08T02:26:28.300Z,0.00
2023-02-08T02:27:28.292Z,0.00
2023-02-08T02:28:28.283Z,0.00
2023-02-08T02:29:28.217Z,0.00
2023-02-08T02:30:28.286Z,0.00
2023-02-08T02:31:28.295Z,0.00
2023-02-08T02:32:28.206Z,0.00
2023-02-08T02:33:28.182Z,0.00
2023-02-08T02:34:28.181Z,0.00
2023-02-08T02:35:28.172Z,0.00
2023-02-08T02:36:28.164Z,0.00
2023-02-08T02:37:28.191Z,0.00
2023-02-08T02:38:30.416Z,0.00
2023-02-08T02:39:28.137Z,0.00
2023-02-08T02:40:28.168Z,0.00
2023-02-08T02:41:28.122Z,0.00
2023-02-08T02:42:28.114Z,0.00
2023-02-08T02:43:28.104Z,0.00
2023-02-08T02:44:28.096Z,0.00
2023-02-08T02:45:28.082Z,0.00
2023-02-08T02:46:28.078Z,0.00
2023-02-08T02:47:28.069Z,0.00
2023-02-08T02:48:28.062Z,0.00
2023-02-08T02:49:28.065Z,0.00
2023-02-08T02:50:28.045Z,0.00
2023-02-08T02:51:28.042Z,0.00
2023-02-08T02:52:28.031Z,0.00
2023-02-08T02:53:28.020Z,0.00
2023-02-08T02:54:28.014Z,0.00
2023-02-08T02:55:28.009Z,0.00
2023-02-08T02:56:28.024Z,0.00
2023-02-08T02:57:27.991Z,0.00
2023-02-08T02:58:27.988Z,0.00
2023-02-08T02:59:27.971Z,0.00
2023-02-08T03:00:27.973Z,0.00
2023-02-08T03:01:27.997Z,0.00
2023-02-08T03:02:27.953Z,0.00
2023-02-08T03:03:27.936Z,0.00
2023-02-08T03:04:27.982Z,0.00
2023-02-08T03:05:27.921Z,0.00
2023-02-08T03:06:27.929Z,0.00
2023-02-08T03:07:27.908Z,0.00
2023-02-08T03:08:27.902Z,0.00
2023-02-08T03:09:27.887Z,0.00
2023-02-08T03:10:27.884Z,0.00
2023-02-08T03:11:27.870Z,0.00
2023-02-08T03:12:27.896Z,0.00
2023-02-08T03:13:27.853Z,0.00
2023-02-08T03:14:27.843Z,0.00
2023-02-08T03:15:27.837Z,0.00
2023-02-08T03:16:27.863Z,0.00
2023-02-08T03:17:27.820Z,0.00
2023-02-08T03:18:27.814Z,0.00
2023-02-08T03:19:27.809Z,0.00
2023-02-08T03:20:27.792Z,0.00
2023-02-08T03:21:27.782Z,0.00
2023-02-08T03:22:27.780Z,0.00
2023-02-08T03:23:27.768Z,0.00
2023-02-08T03:24:27.766Z,0.00
2023-02-08T03:25:27.753Z,0.00
2023-02-08T03:26:27.755Z,0.00
2023-02-08T03:27:27.737Z,0.00
2023-02-08T03:28:27.750Z,0.00
2023-02-08T03:29:27.719Z,0.00
2023-02-08T03:30:27.718Z,0.00
2023-02-08T03:31:27.792Z,0.00
2023-02-08T03:32:27.693Z,0.00
2023-02-08T03:33:27.687Z,0.00
2023-02-08T03:34:27.684Z,0.00
2023-02-08T03:35:27.669Z,0.00
2023-02-08T03:36:27.661Z,0.00
2023-02-08T03:37:27.659Z,0.00
2023-02-08T03:38:27.644Z,0.00
2023-02-08T03:39:27.648Z,0.00
2023-02-08T03:40:27.624Z,0.00
2023-02-08T03:41:27.640Z,0.00
2023-02-08T03:42:27.610Z,0.00
2023-02-08T03:43:27.607Z,0.00
2023-02-08T03:44:27.622Z,0.00
2023-02-08T03:45:27.579Z,0.00
2023-02-08T03:46:27.678Z,0.00
2023-02-08T03:47:27.586Z,0.00
2023-02-08T03:48:27.558Z,0.00
2023-02-08T03:49:27.545Z,0.00
2023-02-08T03:50:27.546Z,0.00
2023-02-08T03:51:27.528Z,0.00
2023-02-08T03:52:27.528Z,0.00
2023-02-08T03:53:27.525Z,0.00
2023-02-08T03:54:27.512Z,0.00
2023-02-08T03:55:27.494Z,0.00
2023-02-08T03:56:27.495Z,0.00
2023-02-08T03:57:27.483Z,0.00
2023-02-08T03:58:27.480Z,0.00
2023-02-08T03:59:27.459Z,0.00
2023-02-08T04:00:27.477Z,0.00
2023-02-08T04:01:27.499Z,0.00
2023-02-08T04:02:27.464Z,0.00
2023-02-08T04:03:27.422Z,0.00
2023-02-08T04:04:27.418Z,0.00
2023-02-08T04:05:27.408Z,0.00
2023-02-08T04:06:27.403Z,0.00
2023-02-08T04:07:27.400Z,0.00
2023-02-08T04:08:27.384Z,0.00
2023-02-08T04:09:27.371Z,0.00
2023-02-08T04:10:27.385Z,0.00
2023-02-08T04:11:27.356Z,0.00
2023-02-08T04:12:27.358Z,0.00
2023-02-08T04:13:27.348Z,0.00
2023-02-08T04:14:27.334Z,0.00
2023-02-08T04:15:27.340Z,0.00
2023-02-08T04:16:27.354Z,0.00
2023-02-08T04:17:27.303Z,0.00
2023-02-08T04:18:27.300Z,0.00
2023-02-08T04:19:27.284Z,0.00
2023-02-08T04:20:27.280Z,0.00
2023-02-08T04:21:27.269Z,0.00
2023-02-08T04:22:27.264Z,0.00
2023-02-08T04:23:27.250Z,0.00
2023-02-08T04:24:27.246Z,0.00
2023-02-08T04:25:27.237Z,0.00
2023-02-08T04:26:27.228Z,0.00
2023-02-08T04:27:27.213Z,0.00
2023-02-08T04:28:27.208Z,0.00
2023-02-08T04:29:27.196Z,0.00
2023-02-08T04:30:27.338Z,0.00
2023-02-08T04:31:27.360Z,0.00
2023-02-08T04:32:27.198Z,0.00
2023-02-08T04:33:27.170Z,0.00
2023-02-08T04:34:27.163Z,0.00
2023-02-08T04:35:27.158Z,0.00
2023-02-08T04:36:27.169Z,0.00
2023-02-08T04:37:27.133Z,0.00
2023-02-08T04:38:27.124Z,0.00
2023-02-08T04:39:27.113Z,0.00
2023-02-08T04:40:27.112Z,0.00
2023-02-08T04:41:27.105Z,0.00
2023-02-08T04:42:27.094Z,0.00
2023-02-08T04:43:27.088Z,0.00
2023-02-08T04:44:27.083Z,0.00
2023-02-08T04:45:27.061Z,0.00
2023-02-08T04:46:27.117Z,0.00
2023-02-08T04:47:27.049Z,0.00
2023-02-08T04:48:27.068Z,0.00
2023-02-08T04:49:27.030Z,0.00
2023-02-08T04:50:27.021Z,0.00
2023-02-08T04:51:27.010Z,0.00
2023-02-08T04:52:27.012Z,0.00
2023-02-08T04:53:26.995Z,0.00
2023-02-08T04:54:26.993Z,0.00
2023-02-08T04:55:26.978Z,0.00
2023-02-08T04:56:26.975Z,0.00
2023-02-08T04:57:26.964Z,0.00
2023-02-08T04:58:26.971Z,0.00
2023-02-08T04:59:26.944Z,0.00
2023-02-08T05:00:26.933Z,0.00
2023-02-08T05:01:26.968Z,0.00
2023-02-08T05:02:26.922Z,0.00
2023-02-08T05:03:26.905Z,0.00
2023-02-08T05:04:26.922Z,0.00
2023-02-08T05:05:26.889Z,0.00
2023-02-08T05:06:26.888Z,0.00
2023-02-08T05:07:26.869Z,0.00
2023-02-08T05:08:26.872Z,0.00
2023-02-08T05:09:26.858Z,0.00
2023-02-08T05:10:26.855Z,0.00
2023-02-08T05:11:26.841Z,0.00
2023-02-08T05:12:26.831Z,0.00
2023-02-08T05:13:26.818Z,0.00
2023-02-08T05:14:26.814Z,0.00
2023-02-08T05:15:26.814Z,0.00
2023-02-08T05:16:26.802Z,0.00
2023-02-08T05:17:26.778Z,0.00
2023-02-08T05:18:26.777Z,0.00
2023-02-08T05:19:26.759Z,0.00
2023-02-08T05:20:26.781Z,0.00
2023-02-08T05:21:26.771Z,0.00
2023-02-08T05:22:26.766Z,0.00
2023-02-08T05:23:26.730Z,0.00
2023-02-08T05:24:26.732Z,8.00
2023-02-08T05:25:26.707Z,8.00
2023-02-08T05:26:26.707Z,8.00
2023-02-08T05:27:26.689Z,8.00
2023-02-08T05:28:26.812Z,8.00
2023-02-08T05:29:26.670Z,8.00
2023-02-08T05:30:26.662Z,0.00
2023-02-08T05:31:26.802Z,0.00
2023-02-08T05:32:26.659Z,0.00
2023-02-08T05:33:26.640Z,0.00
2023-02-08T05:34:26.632Z,0.00
2023-02-08T05:35:26.617Z,0.00
2023-02-08T05:36:26.634Z,0.00
2023-02-08T05:37:26.597Z,0.00
2023-02-08T05:38:26.589Z,0.00
2023-02-08T05:39:26.585Z,0.00
2023-02-08T05:40:26.578Z,0.00
2023-02-08T05:41:26.574Z,0.00
2023-02-08T05:42:26.565Z,0.00
2023-02-08T05:43:26.540Z,0.00
2023-02-08T05:44:26.542Z,0.00
2023-02-08T05:45:26.525Z,0.00
2023-02-08T05:46:26.578Z,0.00
2023-02-08T05:47:26.506Z,0.00
2023-02-08T05:48:26.501Z,0.00
2023-02-08T05:49:26.484Z,0.00
2023-02-08T05:50:26.487Z,0.00
2023-02-08T05:51:26.466Z,0.00
2023-02-08T05:52:26.487Z,0.00
2023-02-08T05:53:26.446Z,0.00
2023-02-08T05:54:26.444Z,0.00
2023-02-08T05:55:26.440Z,0.00
2023-02-08T05:56:26.430Z,0.00
2023-02-08T05:57:26.411Z,0.00
2023-02-08T05:58:26.407Z,4.00
2023-02-08T05:59:26.395Z,0.00
2023-02-08T06:00:26.401Z,0.00
2023-02-08T06:01:26.381Z,0.00
2023-02-08T06:02:26.378Z,0.00
2023-02-08T06:03:26.359Z,4.00
2023-02-08T06:04:26.394Z,0.00
2023-02-08T06:05:26.343Z,4.00
2023-02-08T06:06:26.343Z,0.00
2023-02-08T06:07:26.335Z,4.00
2023-02-08T06:08:26.342Z,4.00
2023-02-08T06:09:26.303Z,4.00
2023-02-08T06:10:26.318Z,8.00
2023-02-08T06:11:26.298Z,8.00
2023-02-08T06:12:26.285Z,8.00
2023-02-08T06:13:26.278Z,8.00
2023-02-08T06:14:26.262Z,12.00
2023-02-08T06:15:26.254Z,12.00
2023-02-08T06:16:26.337Z,16.00
2023-02-08T06:17:26.238Z,20.00
2023-02-08T06:18:26.235Z,20.00
2023-02-08T06:19:26.217Z,24.00
2023-02-08T06:20:26.221Z,28.00
2023-02-08T06:21:26.204Z,32.00
2023-02-08T06:22:26.190Z,40.00
2023-02-08T06:23:26.201Z,44.00
2023-02-08T06:24:26.193Z,48.00
2023-02-08T06:25:26.169Z,52.00
2023-02-08T06:26:26.157Z,60.00
2023-02-08T06:27:26.147Z,64.00
2023-02-08T06:28:26.209Z,76.00
2023-02-08T06:29:26.130Z,80.00
2023-02-08T06:30:26.123Z,92.00
2023-02-08T06:31:26.153Z,100.00
2023-02-08T06:32:26.149Z,112.00
2023-02-08T06:33:26.107Z,120.00
2023-02-08T06:34:26.079Z,132.00
2023-02-08T06:35:26.098Z,144.00
2023-02-08T06:36:26.073Z,152.00
2023-02-08T06:37:26.063Z,168.00
2023-02-08T06:38:26.052Z,180.00
2023-02-08T06:39:26.043Z,192.00
2023-02-08T06:40:26.056Z,208.00
2023-02-08T06:41:26.023Z,220.00
2023-02-08T06:42:26.009Z,232.00
2023-02-08T06:43:26.048Z,248.00
2023-02-08T06:44:26.004Z,264.00
2023-02-08T06:45:25.984Z,284.00
2023-02-08T06:46:25.976Z,296.00
2023-02-08T06:47:25.970Z,316.00
2023-02-08T06:48:25.957Z,336.00
2023-02-08T06:49:25.951Z,356.00
2023-02-08T06:50:25.942Z,372.00
2023-02-08T06:51:25.941Z,392.00
2023-02-08T06:52:25.919Z,412.00
2023-02-08T06:53:25.914Z,436.00
2023-02-08T06:54:25.904Z,456.00
2023-02-08T06:55:25.900Z,476.00
2023-02-08T06:56:25.907Z,500.00
2023-02-08T06:57:25.883Z,520.00
2023-02-08T06:58:25.875Z,544.00
2023-02-08T06:59:25.860Z,572.00
2023-02-08T07:00:25.848Z,596.00
2023-02-08T07:01:25.909Z,624.00
2023-02-08T07:02:25.867Z,648.00
2023-02-08T07:03:25.825Z,676.00
2023-02-08T07:04:25.814Z,704.00
2023-02-08T07:05:25.807Z,728.00
2023-02-08T07:06:25.813Z,756.00
2023-02-08T07:07:25.786Z,784.00
2023-02-08T07:08:25.782Z,808.00
2023-02-08T07:09:25.768Z,840.00
2023-02-08T07:10:25.770Z,868.00
2023-02-08T07:11:25.756Z,888.00
2023-02-08T07:12:25.777Z,920.00
2023-02-08T07:13:25.733Z,952.00
2023-02-08T07:14:25.738Z,976.00
2023-02-08T07:15:25.729Z,1004.00
2023-02-08T07:16:25.739Z,1036.00
2023-02-08T07:17:25.707Z,1068.00
2023-02-08T07:18:25.689Z,1104.00
2023-02-08T07:19:25.683Z,1128.00
2023-02-08T07:20:25.676Z,1160.00
2023-02-08T07:21:25.662Z,1196.00
2023-02-08T07:22:25.662Z,1228.00
2023-02-08T07:23:25.647Z,1256.00
2023-02-08T07:24:25.634Z,1288.00
2023-02-08T07:25:25.630Z,1316.00
2023-02-08T07:26:25.627Z,1340.00
2023-02-08T07:27:26.150Z,1372.00
2023-02-08T07:28:25.721Z,1404.00
2023-02-08T07:29:25.599Z,1432.00
2023-02-08T07:30:25.601Z,1472.00
2023-02-08T07:31:25.582Z,1520.00
2023-02-08T07:32:25.568Z,1552.00
2023-02-08T07:33:25.575Z,1580.00
2023-02-08T07:34:25.558Z,1612.00
2023-02-08T07:35:25.548Z,1644.00
2023-02-08T07:36:25.531Z,1672.00
2023-02-08T07:37:25.530Z,1712.00
2023-02-08T07:38:25.525Z,1752.00
2023-02-08T07:39:25.509Z,1788.00
2023-02-08T07:40:25.500Z,1828.00
2023-02-08T07:41:25.504Z,1860.00
2023-02-08T07:42:25.482Z,1896.00
2023-02-08T07:43:27.236Z,1932.00
2023-02-08T07:44:25.509Z,1948.00
2023-02-08T07:45:25.459Z,1984.00
2023-02-08T07:46:25.483Z,2032.00
2023-02-08T07:47:25.446Z,2100.00
2023-02-08T07:48:25.442Z,2180.00
2023-02-08T07:49:25.450Z,2416.00
2023-02-08T07:50:25.417Z,3236.00
2023-02-08T07:51:25.411Z,3904.00
2023-02-08T07:52:25.399Z,4080.00
2023-02-08T07:53:25.391Z,3716.00
2023-02-08T07:54:25.387Z,3056.00
2023-02-08T07:55:25.388Z,2992.00
2023-02-08T07:56:25.367Z,3052.00
2023-02-08T07:57:25.367Z,3296.00
2023-02-08T07:58:25.350Z,3532.00
2023-02-08T07:59:25.385Z,4000.00
2023-02-08T08:00:25.367Z,4972.00
2023-02-08T08:01:25.380Z,5196.00
2023-02-08T08:02:25.331Z,4956.00
2023-02-08T08:03:25.314Z,4688.00
2023-02-08T08:04:25.304Z,4800.00
2023-02-08T08:05:25.300Z,5792.00
2023-02-08T08:06:25.290Z,5628.00
2023-02-08T08:07:25.290Z,5308.00
2023-02-08T08:08:25.282Z,5268.00
2023-02-08T08:09:25.275Z,4568.00
2023-02-08T08:10:25.266Z,4200.00
2023-02-08T08:11:25.277Z,4468.00
2023-02-08T08:12:25.250Z,4892.00
2023-02-08T08:13:25.240Z,4916.00
2023-02-08T08:14:25.237Z,4996.00
2023-02-08T08:15:25.231Z,5712.00
2023-02-08T08:16:25.266Z,6812.00
2023-02-08T08:17:25.235Z,6752.00
2023-02-08T08:18:25.244Z,5744.00
2023-02-08T08:19:25.198Z,4700.00
2023-02-08T08:20:25.222Z,4544.00
2023-02-08T08:21:25.185Z,6056.00
2023-02-08T08:22:25.176Z,7048.00
2023-02-08T08:23:25.168Z,6032.00
2023-02-08T08:24:25.172Z,4972.00
2023-02-08T08:25:25.167Z,4968.00
2023-02-08T08:26:25.148Z,5616.00
2023-02-08T08:27:25.149Z,5236.00
2023-02-08T08:28:25.196Z,4708.00
2023-02-08T08:29:25.134Z,4948.00
2023-02-08T08:30:25.258Z,5140.00
2023-02-08T08:31:25.245Z,6432.00
2023-02-08T08:32:25.133Z,7088.00
2023-02-08T08:33:25.122Z,6056.00
2023-02-08T08:34:25.103Z,5500.00
2023-02-08T08:35:25.099Z,5836.00
2023-02-08T08:36:25.092Z,6216.00
2023-02-08T08:37:25.082Z,5640.00
2023-02-08T08:38:25.070Z,5996.00
2023-02-08T08:39:25.067Z,5312.00
2023-02-08T08:40:25.334Z,4800.00
2023-02-08T08:41:25.076Z,4928.00
2023-02-08T08:42:25.052Z,4876.00
2023-02-08T08:43:25.046Z,5076.00
2023-02-08T08:44:25.036Z,5076.00
2023-02-08T08:45:25.035Z,5912.00
2023-02-08T08:46:25.066Z,6636.00
2023-02-08T08:47:25.023Z,6648.00
2023-02-08T08:48:25.043Z,6724.00
2023-02-08T08:49:25.014Z,8160.00
2023-02-08T08:50:25.004Z,7912.00
2023-02-08T08:51:24.997Z,9256.00
2023-02-08T08:52:24.995Z,10172.00
2023-02-08T08:53:24.985Z,10360.00
2023-02-08T08:54:24.979Z,9980.00
2023-02-08T08:55:24.979Z,10676.00
2023-02-08T08:56:24.968Z,12092.00
2023-02-08T08:57:24.963Z,14272.00
2023-02-08T08:58:24.954Z,16096.00
2023-02-08T08:59:24.954Z,15008.00
2023-02-08T09:00:24.945Z,14784.00
2023-02-08T09:01:25.028Z,14112.00
2023-02-08T09:02:24.939Z,11360.00
2023-02-08T09:03:24.993Z,9820.00
2023-02-08T09:04:24.938Z,9372.00
2023-02-08T09:05:24.921Z,9208.00
2023-02-08T09:06:24.909Z,9432.00
2023-02-08T09:07:24.910Z,9340.00
2023-02-08T09:08:24.902Z,8956.00
2023-02-08T09:09:24.904Z,8664.00
2023-02-08T09:10:24.886Z,8388.00
2023-02-08T09:11:24.885Z,8452.00
2023-02-08T09:12:24.874Z,8016.00
2023-02-08T09:13:24.925Z,7300.00
2023-02-08T09:14:24.868Z,7068.00
2023-02-08T09:15:24.863Z,7124.00
2023-02-08T09:16:24.932Z,7484.00
2023-02-08T09:17:24.857Z,9872.00
2023-02-08T09:18:24.849Z,14624.00
2023-02-08T09:19:24.849Z,14976.00
2023-02-08T09:20:24.864Z,13260.00
2023-02-08T09:21:24.842Z,13824.00
2023-02-08T09:22:24.829Z,15648.00
2023-02-08T09:23:24.826Z,15360.00
2023-02-08T09:24:24.825Z,18240.00
2023-02-08T09:25:24.817Z,19424.00
2023-02-08T09:26:24.815Z,17280.00
2023-02-08T09:27:24.826Z,16480.00
2023-02-08T09:28:24.881Z,18560.00
2023-02-08T09:29:24.799Z,16512.00
2023-02-08T09:30:24.801Z,17792.00
2023-02-08T09:31:25.016Z,21664.00
2023-02-08T09:32:24.789Z,20672.00
2023-02-08T09:33:24.786Z,22688.00
2023-02-08T09:34:24.782Z,22176.00
2023-02-08T09:35:24.782Z,20928.00
2023-02-08T09:36:24.807Z,20480.00
2023-02-08T09:37:24.775Z,19840.00
2023-02-08T09:38:24.772Z,19040.00
2023-02-08T09:39:24.770Z,18656.00
2023-02-08T09:40:24.773Z,17216.00
2023-02-08T09:41:24.770Z,18784.00
2023-02-08T09:42:24.759Z,20160.00
2023-02-08T09:43:24.764Z,20736.00
2023-02-08T09:44:24.760Z,18112.00
2023-02-08T09:45:24.757Z,19136.00
2023-02-08T09:46:24.823Z,20864.00
2023-02-08T09:47:24.760Z,18400.00
2023-02-08T09:48:24.751Z,17600.00
2023-02-08T09:49:24.750Z,14304.00
2023-02-08T09:50:24.749Z,8192.00
2023-02-08T09:51:24.744Z,6120.00
2023-02-08T09:52:24.767Z,5740.00
2023-02-08T09:53:24.749Z,5600.00
2023-02-08T09:54:24.745Z,5564.00
2023-02-08T09:55:24.737Z,5444.00
2023-02-08T09:56:24.745Z,5392.00
2023-02-08T09:57:24.740Z,5288.00
2023-02-08T09:58:24.739Z,5228.00
2023-02-08T09:59:24.730Z,5172.00
2023-02-08T10:00:24.735Z,5096.00
2023-02-08T10:01:24.730Z,5052.00
2023-02-08T10:02:24.725Z,5036.00
2023-02-08T10:03:24.817Z,5000.00
2023-02-08T10:04:24.729Z,4960.00
2023-02-08T10:05:24.726Z,5012.00
2023-02-08T10:06:24.721Z,5012.00
2023-02-08T10:07:24.740Z,4964.00
2023-02-08T10:08:34.540Z,4948.00
2023-02-08T10:09:24.715Z,4944.00
2023-02-08T10:10:24.713Z,4940.00
2023-02-08T10:11:24.726Z,4964.00
2023-02-08T10:12:24.703Z,4956.00
2023-02-08T10:13:40.386Z,4924.00
2023-02-08T10:14:24.751Z,4896.00
2023-02-08T10:15:24.698Z,4900.00
2023-02-08T10:16:24.724Z,4896.00
2023-02-08T10:17:24.688Z,4900.00
2023-02-08T10:18:24.772Z,4864.00
2023-02-08T10:19:24.688Z,4880.00
2023-02-08T10:20:24.697Z,4884.00
2023-02-08T10:21:24.683Z,4832.00
2023-02-08T10:22:24.675Z,4836.00
2023-02-08T10:23:24.679Z,4876.00
2023-02-08T10:24:24.697Z,4904.00
2023-02-08T10:25:24.665Z,4904.00
2023-02-08T10:26:24.671Z,4912.00
2023-02-08T10:27:24.688Z,4880.00
2023-02-08T10:28:24.711Z,4820.00
2023-02-08T10:29:24.660Z,4880.00
2023-02-08T10:30:24.669Z,4860.00
2023-02-08T10:31:24.675Z,4828.00
2023-02-08T10:32:24.649Z,4824.00
2023-02-08T10:33:24.644Z,4824.00
2023-02-08T10:34:24.638Z,4828.00
2023-02-08T10:35:24.638Z,4848.00
2023-02-08T10:36:24.630Z,4844.00
2023-02-08T10:37:24.638Z,4844.00
2023-02-08T10:38:25.209Z,4820.00
2023-02-08T10:39:24.617Z,4836.00
2023-02-08T10:40:24.651Z,4812.00
2023-02-08T10:41:24.608Z,4828.00
2023-02-08T10:42:24.624Z,4804.00
2023-02-08T10:43:24.640Z,4840.00
2023-02-08T10:44:24.606Z,4796.00
2023-02-08T10:45:25.031Z,4800.00
2023-02-08T10:46:24.599Z,4768.00
2023-02-08T10:47:24.600Z,4724.00
2023-02-08T10:48:24.597Z,4736.00
2023-02-08T10:49:24.585Z,4684.00
2023-02-08T10:50:24.594Z,4700.00
2023-02-08T10:51:24.578Z,4712.00
2023-02-08T10:52:24.586Z,4696.00
2023-02-08T10:53:24.576Z,4672.00
2023-02-08T10:54:24.568Z,4692.00
2023-02-08T10:55:24.562Z,4640.00
2023-02-08T10:56:24.579Z,4696.00
2023-02-08T10:57:24.550Z,4696.00
2023-02-08T10:58:24.557Z,4648.00
2023-02-08T10:59:24.553Z,4624.00
2023-02-08T11:00:24.611Z,4688.00
2023-02-08T11:01:24.592Z,4636.00
2023-02-08T11:02:24.539Z,4628.00
2023-02-08T11:03:24.530Z,4620.00
2023-02-08T11:04:24.626Z,4624.00
2023-02-08T11:05:24.523Z,4600.00
2023-02-08T11:06:24.516Z,4712.00
2023-02-08T11:07:24.516Z,4684.00
2023-02-08T11:08:24.518Z,4680.00
2023-02-08T11:09:24.519Z,4664.00
2023-02-08T11:10:24.517Z,4632.00
2023-02-08T11:11:24.494Z,4640.00
2023-02-08T11:12:24.527Z,4688.00
2023-02-08T11:13:24.491Z,4648.00
2023-02-08T11:14:26.029Z,4644.00
2023-02-08T11:15:24.484Z,4660.00
2023-02-08T11:16:24.542Z,4636.00
2023-02-08T11:17:24.473Z,4608.00
2023-02-08T11:18:24.489Z,4628.00
2023-02-08T11:19:24.466Z,4628.00
2023-02-08T11:20:24.472Z,4572.00
2023-02-08T11:21:24.470Z,4592.00
2023-02-08T11:22:24.461Z,4604.00
2023-02-08T11:23:24.457Z,4572.00
2023-02-08T11:24:24.458Z,4548.00
2023-02-08T11:25:24.455Z,4544.00
2023-02-08T11:26:24.458Z,4588.00
2023-02-08T11:27:24.448Z,4548.00
2023-02-08T11:28:24.528Z,4532.00
2023-02-08T11:29:24.435Z,4584.00
2023-02-08T11:30:24.630Z,4520.00
2023-02-08T11:31:24.473Z,4520.00
2023-02-08T11:32:24.422Z,4512.00
2023-02-08T11:33:24.421Z,4488.00
2023-02-08T11:34:24.417Z,4440.00
2023-02-08T11:35:24.420Z,4464.00
2023-02-08T11:36:24.414Z,4508.00
2023-02-08T11:37:24.412Z,4464.00
2023-02-08T11:38:24.399Z,4472.00
2023-02-08T11:39:24.419Z,4464.00
2023-02-08T11:40:24.396Z,4492.00
2023-02-08T11:41:24.383Z,4500.00
2023-02-08T11:42:24.387Z,4428.00
2023-02-08T11:43:24.378Z,4440.00
2023-02-08T11:44:24.406Z,4400.00
2023-02-08T11:45:24.376Z,4392.00
2023-02-08T11:46:24.503Z,4404.00
2023-02-08T11:47:24.365Z,4364.00
2023-02-08T11:48:24.373Z,4372.00
2023-02-08T11:49:24.360Z,4344.00
2023-02-08T11:50:24.358Z,4324.00
2023-02-08T11:51:24.348Z,4364.00
2023-02-08T11:52:24.346Z,4332.00
2023-02-08T11:53:24.343Z,4256.00
2023-02-08T11:54:24.345Z,4240.00
2023-02-08T11:55:24.351Z,4244.00
2023-02-08T11:56:24.337Z,4268.00
2023-02-08T11:57:24.333Z,4280.00
2023-02-08T11:58:24.332Z,4252.00
2023-02-08T11:59:24.315Z,4184.00
2023-02-08T12:00:24.347Z,4152.00
2023-02-08T12:01:24.317Z,4192.00
2023-02-08T12:02:24.357Z,4212.00
2023-02-08T12:03:24.352Z,4148.00
2023-02-08T12:04:24.299Z,4164.00
2023-02-08T12:05:24.289Z,4136.00
2023-02-08T12:06:24.309Z,4120.00
2023-02-08T12:07:24.304Z,4152.00
2023-02-08T12:08:24.288Z,4116.00
2023-02-08T12:09:24.281Z,4120.00
2023-02-08T12:10:24.290Z,4104.00
2023-02-08T12:11:24.270Z,4104.00
2023-02-08T12:12:24.271Z,4096.00
2023-02-08T12:13:24.268Z,4072.00
2023-02-08T12:14:24.263Z,4120.00
2023-02-08T12:15:24.334Z,4080.00
2023-02-08T12:16:24.326Z,4016.00
2023-02-08T12:17:24.250Z,3980.00
2023-02-08T12:18:24.278Z,3920.00
2023-02-08T12:19:24.269Z,3872.00
2023-02-08T12:20:24.259Z,3828.00
2023-02-08T12:21:24.237Z,3792.00
2023-02-08T12:22:24.233Z,3732.00
2023-02-08T12:23:24.229Z,3728.00
2023-02-08T12:24:24.276Z,3724.00
2023-02-08T12:25:24.217Z,3716.00
2023-02-08T12:26:24.230Z,3708.00
2023-02-08T12:27:24.223Z,3676.00
2023-02-08T12:28:24.308Z,3640.00
2023-02-08T12:29:24.230Z,3604.00
2023-02-08T12:30:24.206Z,3608.00
2023-02-08T12:31:24.334Z,3608.00
2023-02-08T12:32:24.233Z,3600.00
2023-02-08T12:33:24.211Z,3596.00
2023-02-08T12:34:24.190Z,3576.00
2023-02-08T12:35:38.265Z,3564.00
2023-02-08T12:36:24.187Z,3544.00
2023-02-08T12:37:24.175Z,3520.00
2023-02-08T12:38:24.168Z,3488.00
2023-02-08T12:39:26.022Z,3480.00
2023-02-08T12:40:24.160Z,3488.00